Time;durP1;ratioP1;P1;durP2;ratioP2;P2;SDS_P1;SDS_P2;PMS_P1;PMS_P2;Temp;Humidity;BMP_temperature;BMP_pressure;BME280_temperature;BME280_humidity;BME280_pressure;Samples;Min_cycle;Max_cycle;Signal;HPM_P1;HPM_P2
2022/10/22 00:00:12;;;;;;;;;;;;;;;13.11;59.92;99815.75;4356110;32;24389;-93
2022/10/22 00:02:37;;;;;;;;;;;;;;;13.14;59.91;99813.88;4356295;32;19962;-95
2022/10/22 00:05:02;;;;;;;;;;;;;;;13.15;59.91;99814.72;4369057;32;19979;-93
2022/10/22 00:07:27;;;;;;;;;;;;;;;13.28;59.92;99813.34;4382088;32;19979;-92
2022/10/22 00:09:53;;;;;;;;;;;;;;;13.14;59.92;99816.47;4356627;32;20026;-93
2022/10/22 00:12:18;;;;;;;;;;;;;;;13.11;59.92;99813.16;4368620;32;19983;-93
2022/10/22 00:14:43;;;;;;;;;;;;;;;13.19;59.92;99809.31;4367996;32;28552;-95
2022/10/22 00:17:08;;;;;;;;;;;;;;;13.08;59.90;99811.53;4356453;32;20038;-95
2022/10/22 00:19:34;;;;;;;;;;;;;;;13.08;59.91;99811.53;4381985;32;36331;-96
2022/10/22 00:21:59;;;;;;;;;;;;;;;13.04;59.91;99812.56;4382547;32;19979;-95
2022/10/22 00:24:24;;;;;;;;;;;;;;;13.17;59.91;99800.69;4368901;32;20292;-95
2022/10/22 00:26:49;;;;;;;;;;;;;;;13.13;59.92;99812.16;4355527;32;20002;-94
2022/10/22 00:29:17;;;;;;;;;;;;;;;13.03;59.91;99807.41;4369110;32;19986;-95
2022/10/22 00:31:48;;;;;;;;;;;;;;;13.13;59.92;99808.72;4353933;32;20356;-94
2022/10/22 00:34:13;;;;;;;;;;;;;;;13.25;59.92;99800.41;4369254;32;19967;-96
2022/10/22 00:36:38;;;;;;;;;;;;;;;13.11;59.92;99800.09;4367967;32;36126;-95
2022/10/22 00:39:03;;;;;;;;;;;;;;;13.19;59.92;99800.63;4351858;32;36162;-96
2022/10/22 00:41:29;;;;;;;;;;;;;;;13.35;59.93;99798.25;4368094;32;26579;-96
2022/10/22 00:43:55;;;;;;;;;;;;;;;13.23;59.92;99793.50;4367121;32;27753;-96
2022/10/22 00:46:21;;;;;;;;;;;;;;;13.19;59.93;99790.19;4354065;32;19971;-96
2022/10/22 00:48:46;;;;;;;;;;;;;;;13.24;59.92;99784.75;4368670;32;20014;-96
2022/10/22 00:51:11;;;;;;;;;;;;;;;13.23;59.92;99785.66;4347221;32;29676;-94
2022/10/22 00:53:37;;;;;;;;;;;;;;;13.33;59.92;99787.84;4355933;32;19983;-94
2022/10/22 00:56:02;;;;;;;;;;;;;;;13.31;59.92;99786.22;4368680;32;19990;-94
2022/10/22 00:58:28;;;;;;;;;;;;;;;13.29;59.92;99795.91;4345728;32;20001;-94
2022/10/22 01:00:54;;;;;;;;;;;;;;;13.12;59.91;99797.41;4368146;32;19990;-94
2022/10/22 01:03:19;;;;;;;;;;;;;;;13.14;59.92;99789.50;4356067;32;19983;-93
2022/10/22 01:05:57;;;;;;;;;;;;;;;13.12;59.92;99788.72;4344872;32;31532;-94
2022/10/22 01:08:36;;;;;;;;;;;;;;;13.11;59.92;99790.47;4371520;32;20002;-93
2022/10/22 01:11:05;;;;;;;;;;;;;;;12.98;59.91;99796.25;4374620;32;19975;-93
2022/10/22 01:13:33;;;;;;;;;;;;;;;12.91;59.90;99795.66;4357854;32;20559;-93
2022/10/22 01:16:07;;;;;;;;;;;;;;;13.10;59.91;99787.94;4368586;32;20005;-93
2022/10/22 01:18:54;;;;;;;;;;;;;;;13.10;59.90;99798.38;4368462;32;20002;-93
2022/10/22 01:21:37;;;;;;;;;;;;;;;13.10;59.91;99794.00;4356005;32;19951;-93
2022/10/22 01:24:12;;;;;;;;;;;;;;;13.06;59.91;99796.81;4355714;32;19983;-92
2022/10/22 01:26:40;;;;;;;;;;;;;;;13.05;59.91;99785.50;4367862;32;19999;-92
2022/10/22 01:29:28;;;;;;;;;;;;;;;13.05;59.91;99793.34;4382048;32;20001;-94
2022/10/22 01:31:55;;;;;;;;;;;;;;;13.20;59.92;99790.13;4362675;32;19985;-94
2022/10/22 01:34:20;;;;;;;;;;;;;;;12.99;59.91;99792.75;4354133;32;19975;-94
2022/10/22 01:36:45;;;;;;;;;;;;;;;13.16;59.91;99788.53;4365616;32;31043;-94
2022/10/22 01:39:11;;;;;;;;;;;;;;;13.16;59.91;99796.34;4353538;32;19995;-94
2022/10/22 01:41:37;;;;;;;;;;;;;;;13.26;59.92;99789.03;4353525;32;20321;-94
2022/10/22 01:44:03;;;;;;;;;;;;;;;13.15;59.91;99781.59;4366412;32;20297;-94
2022/10/22 01:46:28;;;;;;;;;;;;;;;13.14;59.92;99785.13;4366472;32;19990;-94
2022/10/22 01:49:04;;;;;;;;;;;;;;;13.23;59.91;99786.53;4352039;32;23293;-94
2022/10/22 01:51:33;;;;;;;;;;;;;;;13.21;59.92;99781.34;4354025;32;19983;-93
2022/10/22 01:54:13;;;;;;;;;;;;;;;13.19;59.92;99777.12;4365583;32;20004;-93
2022/10/22 01:56:39;;;;;;;;;;;;;;;13.14;59.91;99779.91;4366377;32;20030;-94
2022/10/22 01:59:23;;;;;;;;;;;;;;;13.10;59.90;99780.94;4366088;32;20003;-94
2022/10/22 02:02:07;;;;;;;;;;;;;;;13.22;59.92;99776.97;4366989;32;20771;-93
2022/10/22 02:04:34;;;;;;;;;;;;;;;13.34;59.92;99780.84;4366051;32;19979;-93
2022/10/22 02:07:00;;;;;;;;;;;;;;;13.28;59.92;99768.06;4353560;32;20005;-93
2022/10/22 02:09:26;;;;;;;;;;;;;;;13.31;59.92;99767.91;4370604;32;19983;-93
2022/10/22 02:11:51;;;;;;;;;;;;;;;13.25;59.91;99761.19;4357007;32;19991;-92
2022/10/22 02:14:16;;;;;;;;;;;;;;;13.02;59.90;99764.75;4364487;32;37412;-91
2022/10/22 02:16:42;;;;;;;;;;;;;;;12.86;59.89;99766.28;4365696;32;19983;-91
2022/10/22 02:19:15;;;;;;;;;;;;;;;12.88;59.90;99770.53;4365609;32;19995;-92
2022/10/22 02:21:41;;;;;;;;;;;;;;;12.90;59.90;99773.06;4365347;32;19997;-93
2022/10/22 02:24:06;;;;;;;;;;;;;;;12.90;59.90;99780.91;4352871;32;20014;-92
2022/10/22 02:26:32;;;;;;;;;;;;;;;12.80;59.89;99766.53;4364581;32;36892;-93
2022/10/22 02:29:18;;;;;;;;;;;;;;;13.04;59.91;99754.22;4366505;32;19987;-93
2022/10/22 02:31:43;;;;;;;;;;;;;;;13.19;59.92;99761.44;4367428;32;20005;-93
2022/10/22 02:34:12;;;;;;;;;;;;;;;13.08;59.91;99769.72;4367708;32;19983;-93
2022/10/22 02:36:38;;;;;;;;;;;;;;;12.81;59.90;99763.88;4367943;32;20042;-93
2022/10/22 02:39:03;;;;;;;;;;;;;;;12.99;59.91;99770.06;4352631;32;27564;-93
2022/10/22 02:41:35;;;;;;;;;;;;;;;12.77;59.89;99774.47;4367152;32;19987;-94
2022/10/22 02:44:01;;;;;;;;;;;;;;;12.87;59.90;99778.44;4371771;32;20593;-95
2022/10/22 02:46:27;;;;;;;;;;;;;;;12.60;59.88;99785.63;4375596;32;20022;-95
2022/10/22 02:48:52;;;;;;;;;;;;;;;12.57;59.89;99791.81;4367589;32;19986;-95
2022/10/22 02:51:17;;;;;;;;;;;;;;;12.40;59.87;99806.44;4376211;32;20025;-94
2022/10/22 02:53:42;;;;;;;;;;;;;;;12.38;59.87;99798.66;4357486;32;20317;-95
2022/10/22 02:56:08;;;;;;;;;;;;;;;12.40;59.87;99799.44;4367150;32;27272;-93
2022/10/22 02:58:33;;;;;;;;;;;;;;;12.32;59.86;99798.91;4355156;32;33254;-95
2022/10/22 03:00:58;;;;;;;;;;;;;;;12.28;59.87;99792.91;4362730;32;19995;-95
2022/10/22 03:03:23;;;;;;;;;;;;;;;12.36;59.87;99787.44;4361917;32;26525;-95
2022/10/22 03:05:49;;;;;;;;;;;;;;;12.28;59.87;99785.09;4367441;32;19991;-94
2022/10/22 03:08:14;;;;;;;;;;;;;;;12.13;59.86;99798.75;4386211;32;20028;-93
2022/10/22 03:10:39;;;;;;;;;;;;;;;12.13;59.86;99792.66;4354336;32;19983;-93
2022/10/22 03:13:04;;;;;;;;;;;;;;;12.07;59.86;99791.16;4366935;32;32991;-93
2022/10/22 03:15:30;;;;;;;;;;;;;;;12.14;59.86;99783.94;4354128;32;38789;-94
2022/10/22 03:17:55;;;;;;;;;;;;;;;12.11;59.85;99777.06;4366714;32;34937;-94
2022/10/22 03:20:20;;;;;;;;;;;;;;;12.15;59.86;99778.66;4367263;32;30480;-93
2022/10/22 03:22:45;;;;;;;;;;;;;;;11.96;59.84;99770.66;4366684;32;33970;-94
2022/10/22 03:25:12;;;;;;;;;;;;;;;11.91;59.85;99763.91;4353913;32;36305;-94
2022/10/22 03:27:37;;;;;;;;;;;;;;;11.85;59.84;99765.00;4367559;32;20033;-94
2022/10/22 03:30:03;;;;;;;;;;;;;;;11.91;59.85;99758.72;4348472;32;24121;-92
2022/10/22 03:32:28;;;;;;;;;;;;;;;11.93;59.84;99762.97;4350141;32;20289;-92
2022/10/22 03:34:53;;;;;;;;;;;;;;;12.06;59.85;99765.94;4342108;32;19999;-93
2022/10/22 03:37:19;;;;;;;;;;;;;;;11.92;59.85;99765.63;4354697;32;19998;-93
2022/10/22 03:39:44;;;;;;;;;;;;;;;11.92;59.85;99761.25;4351693;32;37179;-95
2022/10/22 03:42:09;;;;;;;;;;;;;;;11.97;59.84;99766.28;4366535;32;35442;-93
2022/10/22 03:44:35;;;;;;;;;;;;;;;12.07;59.85;99767.66;4355240;32;20034;-96
2022/10/22 03:47:00;;;;;;;;;;;;;;;12.07;59.85;99761.59;4352681;32;19991;-94
2022/10/22 03:49:25;;;;;;;;;;;;;;;12.09;59.85;99754.56;4352069;32;27522;-94
2022/10/22 03:51:51;;;;;;;;;;;;;;;11.90;59.85;99742.22;4342180;32;29840;-93
2022/10/22 03:54:16;;;;;;;;;;;;;;;11.64;59.83;99737.94;4365329;32;27981;-94
2022/10/22 03:56:41;;;;;;;;;;;;;;;11.76;59.84;99739.22;4343866;32;19995;-92
2022/10/22 03:59:06;;;;;;;;;;;;;;;11.76;59.84;99740.97;4367036;32;19971;-92
2022/10/22 04:01:32;;;;;;;;;;;;;;;11.67;59.83;99752.59;4344543;32;19990;-92
2022/10/22 04:03:57;;;;;;;;;;;;;;;11.78;59.84;99754.81;4354584;32;20260;-94
2022/10/22 04:06:22;;;;;;;;;;;;;;;11.83;59.84;99763.34;4368275;32;20021;-96
2022/10/22 04:08:47;;;;;;;;;;;;;;;11.72;59.84;99771.53;4370692;32;19963;-96
2022/10/22 04:11:13;;;;;;;;;;;;;;;11.61;59.83;99768.47;4351793;32;37607;-94
2022/10/22 04:13:38;;;;;;;;;;;;;;;11.45;59.81;99769.91;4350983;32;20002;-94
2022/10/22 04:16:07;;;;;;;;;;;;;;;11.49;59.82;99761.94;4367155;32;19995;-94
2022/10/22 04:18:32;;;;;;;;;;;;;;;11.40;59.82;99761.41;4380674;32;20341;-95
2022/10/22 04:20:58;;;;;;;;;;;;;;;11.36;59.81;99771.09;4354113;32;20010;-94
2022/10/22 04:23:23;;;;;;;;;;;;;;;11.41;59.82;99760.50;4366524;32;20343;-95
2022/10/22 04:25:48;;;;;;;;;;;;;;;11.57;59.82;99767.72;4381260;32;20343;-95
2022/10/22 04:28:13;;;;;;;;;;;;;;;11.56;59.82;99766.00;4362887;32;19971;-96
2022/10/22 04:30:38;;;;;;;;;;;;;;;11.55;59.83;99761.69;4356195;32;29063;-95
2022/10/22 04:33:04;;;;;;;;;;;;;;;11.27;59.81;99754.00;4351071;32;27532;-95
2022/10/22 04:35:29;;;;;;;;;;;;;;;11.14;59.80;99762.31;4353379;32;35665;-95
2022/10/22 04:37:54;;;;;;;;;;;;;;;11.16;59.80;99761.34;4364989;32;20042;-96
2022/10/22 04:40:19;;;;;;;;;;;;;;;11.18;59.80;99758.69;4354369;32;20008;-95
2022/10/22 04:42:45;;;;;;;;;;;;;;;11.16;59.81;99763.13;4370496;32;20054;-95
2022/10/22 04:45:10;;;;;;;;;;;;;;;11.50;59.82;99757.56;4368600;32;29084;-96
2022/10/22 04:47:35;;;;;;;;;;;;;;;11.24;59.81;99761.94;4367884;32;31428;-95
2022/10/22 04:50:00;;;;;;;;;;;;;;;10.76;59.78;99764.44;4357626;32;35970;-92
2022/10/22 04:52:25;;;;;;;;;;;;;;;10.75;59.78;99753.16;4376457;32;34013;-92
2022/10/22 04:54:51;;;;;;;;;;;;;;;10.87;59.79;99743.22;4355439;32;35386;-96
2022/10/22 04:57:16;;;;;;;;;;;;;;;10.91;59.78;99744.84;4367783;32;37457;-95
2022/10/22 04:59:43;;;;;;;;;;;;;;;10.91;59.78;99755.28;4368892;32;20013;-95
2022/10/22 05:02:09;;;;;;;;;;;;;;;10.82;59.78;99763.38;4359683;32;19967;-94
2022/10/22 05:04:34;;;;;;;;;;;;;;;10.94;59.79;99758.63;4362188;32;35567;-94
2022/10/22 05:06:59;;;;;;;;;;;;;;;10.89;59.79;99754.47;4367831;32;26207;-94
2022/10/22 05:09:24;;;;;;;;;;;;;;;10.81;59.78;99759.06;4367844;32;34276;-94
2022/10/22 05:11:50;;;;;;;;;;;;;;;10.77;59.79;99760.94;4355702;32;24107;-94
2022/10/22 05:14:16;;;;;;;;;;;;;;;10.77;59.79;99751.34;4356150;32;20014;-94
2022/10/22 05:16:41;;;;;;;;;;;;;;;10.88;59.79;99758.81;4356344;32;19986;-96
2022/10/22 05:19:07;;;;;;;;;;;;;;;10.68;59.78;99753.44;4374025;32;20226;-96
2022/10/22 05:21:32;;;;;;;;;;;;;;;10.77;59.79;99760.94;4367985;32;19978;-94
2022/10/22 05:24:00;;;;;;;;;;;;;;;10.86;59.79;99760.59;4367455;32;21052;-93
2022/10/22 05:26:25;;;;;;;;;;;;;;;10.98;59.79;99760.22;4356620;32;21000;-95
2022/10/22 05:28:51;;;;;;;;;;;;;;;10.98;59.78;99759.38;4368530;32;19983;-95
2022/10/22 05:31:16;;;;;;;;;;;;;;;10.86;59.79;99768.41;4356143;32;20010;-91
2022/10/22 05:33:41;;;;;;;;;;;;;;;10.77;59.79;99768.72;4346258;32;30715;-93
2022/10/22 05:36:07;;;;;;;;;;;;;;;10.64;59.78;99764.81;4355069;32;19987;-92
2022/10/22 05:38:32;;;;;;;;;;;;;;;10.77;59.79;99764.37;4362757;32;20022;-93
2022/10/22 05:40:58;;;;;;;;;;;;;;;10.85;59.79;99751.09;4355920;32;20042;-94
2022/10/22 05:43:23;;;;;;;;;;;;;;;10.92;59.80;99752.62;4352925;32;19987;-94
2022/10/22 05:45:48;;;;;;;;;;;;;;;10.95;59.79;99749.91;4363253;32;33527;-93
2022/10/22 05:48:14;;;;;;;;;;;;;;;10.99;59.79;99743.69;4354658;32;33014;-93
2022/10/22 05:50:39;;;;;;;;;;;;;;;10.86;59.79;99762.38;4360098;32;27651;-94
2022/10/22 05:53:04;;;;;;;;;;;;;;;11.14;59.79;99764.91;4371816;32;27675;-94
2022/10/22 05:55:29;;;;;;;;;;;;;;;10.93;59.80;99774.31;4363579;32;20014;-94
2022/10/22 05:57:54;;;;;;;;;;;;;;;10.89;59.79;99768.34;4349442;32;20015;-92
2022/10/22 06:00:20;;;;;;;;;;;;;;;10.92;59.79;99764.78;4380839;32;33739;-94
2022/10/22 06:02:48;;;;;;;;;;;;;;;10.91;59.78;99763.09;4367881;32;20021;-93
2022/10/22 06:05:13;;;;;;;;;;;;;;;10.96;59.79;99769.00;4368186;32;19979;-93
2022/10/22 06:07:38;;;;;;;;;;;;;;;10.98;59.79;99788.88;4349505;32;20591;-93
2022/10/22 06:10:04;;;;;;;;;;;;;;;11.19;59.80;99789.91;4362780;32;35863;-93
2022/10/22 06:12:29;;;;;;;;;;;;;;;11.26;59.81;99796.59;4367788;32;20006;-91
2022/10/22 06:14:54;;;;;;;;;;;;;;;11.25;59.80;99789.69;4367835;32;20006;-93
2022/10/22 06:17:19;;;;;;;;;;;;;;;11.21;59.80;99797.66;4354401;32;36884;-93
2022/10/22 06:19:45;;;;;;;;;;;;;;;11.24;59.81;99795.81;4347723;32;31776;-93
2022/10/22 06:22:10;;;;;;;;;;;;;;;11.63;59.83;99785.75;4367598;32;23029;-93
2022/10/22 06:24:35;;;;;;;;;;;;;;;11.58;59.82;99789.41;4352071;32;32378;-93
2022/10/22 06:27:00;;;;;;;;;;;;;;;11.76;59.84;99793.97;4366547;32;26695;-91
2022/10/22 06:29:25;;;;;;;;;;;;;;;11.63;59.83;99784.91;4354882;32;20317;-91
2022/10/22 06:31:51;;;;;;;;;;;;;;;11.95;59.84;99784.62;4346803;32;20289;-92
2022/10/22 06:34:17;;;;;;;;;;;;;;;12.13;59.86;99780.47;4367397;32;29722;-93
2022/10/22 06:36:43;;;;;;;;;;;;;;;12.35;59.86;99782.25;4368326;32;19978;-93
2022/10/22 06:39:10;;;;;;;;;;;;;;;12.35;59.86;99788.34;4367890;32;20377;-92
2022/10/22 06:41:35;;;;;;;;;;;;;;;12.40;59.87;99794.22;4350036;32;19994;-92
2022/10/22 06:44:00;;;;;;;;;;;;;;;12.37;59.88;99810.00;4354724;32;35506;-93
2022/10/22 06:46:25;;;;;;;;;;;;;;;12.42;59.87;99809.81;4358244;32;36320;-90
2022/10/22 06:48:51;;;;;;;;;;;;;;;12.57;59.88;99810.09;4361376;32;20026;-94
2022/10/22 06:51:17;;;;;;;;;;;;;;;13.01;59.90;99803.97;4357366;32;19998;-92
2022/10/22 06:53:42;;;;;;;;;;;;;;;13.15;59.91;99791.19;4366850;32;20011;-93
2022/10/22 06:56:08;;;;;;;;;;;;;;;13.38;59.92;99795.50;4367812;32;19986;-92
2022/10/22 06:58:33;;;;;;;;;;;;;;;13.55;59.92;99789.53;4354548;32;19995;-94
2022/10/22 07:00:59;;;;;;;;;;;;;;;13.65;59.94;99783.81;4367840;32;20005;-94
2022/10/22 07:03:24;;;;;;;;;;;;;;;13.76;59.95;99796.44;4355486;32;19997;-95
2022/10/22 07:05:51;;;;;;;;;;;;;;;13.80;59.95;99798.84;4352320;32;35567;-94
2022/10/22 07:08:16;;;;;;;;;;;;;;;14.06;59.96;99796.84;4362860;32;19986;-95
2022/10/22 07:10:41;;;;;;;;;;;;;;;14.06;59.96;99774.13;4365032;32;37768;-94
2022/10/22 07:13:06;;;;;;;;;;;;;;;14.20;59.97;99777.91;4354802;32;34151;-95
2022/10/22 07:15:32;;;;;;;;;;;;;;;14.21;59.97;99780.44;4356489;32;19978;-94
2022/10/22 07:17:57;;;;;;;;;;;;;;;14.32;59.97;99772.91;4353571;32;28292;-92
2022/10/22 07:20:22;;;;;;;;;;;;;;;14.30;59.97;99787.00;4364130;32;19979;-93
2022/10/22 07:22:47;;;;;;;;;;;;;;;14.33;59.98;99779.84;4349584;32;19980;-92
2022/10/22 07:25:13;;;;;;;;;;;;;;;14.48;59.98;99767.00;4355112;32;20033;-93
2022/10/22 07:27:38;;;;;;;;;;;;;;;14.48;59.99;99770.47;4352043;32;26238;-92
2022/10/22 07:30:03;;;;;;;;;;;;;;;14.49;59.98;99772.16;4354779;32;19997;-93
2022/10/22 07:32:28;;;;;;;;;;;;;;;14.63;59.98;99777.56;4354320;32;20010;-93
2022/10/22 07:34:54;;;;;;;;;;;;;;;14.72;60.00;99782.38;4351886;32;33242;-93
2022/10/22 07:37:20;;;;;;;;;;;;;;;14.88;60.00;99786.84;4354549;32;24192;-91
2022/10/22 07:39:46;;;;;;;;;;;;;;;14.97;60.01;99778.56;4367693;32;19995;-93
2022/10/22 07:42:11;;;;;;;;;;;;;;;15.03;60.01;99762.53;4355177;32;19998;-92
2022/10/22 07:44:36;;;;;;;;;;;;;;;15.01;60.02;99756.50;4354371;32;33649;-92
2022/10/22 07:47:02;;;;;;;;;;;;;;;15.11;60.02;99759.50;4366544;32;20002;-93
2022/10/22 07:49:27;;;;;;;;;;;;;;;15.32;60.03;99766.28;4343268;32;33845;-92
2022/10/22 07:51:52;;;;;;;;;;;;;;;15.32;60.03;99771.53;4366032;32;36184;-93
2022/10/22 07:54:18;;;;;;;;;;;;;;;15.45;60.03;99770.00;4367185;32;20001;-92
2022/10/22 07:56:43;;;;;;;;;;;;;;;15.65;60.05;99774.25;4367155;32;19987;-92
2022/10/22 07:59:08;;;;;;;;;;;;;;;15.79;60.06;99781.38;4366907;32;31226;-92
2022/10/22 08:01:33;;;;;;;;;;;;;;;15.87;60.06;99772.19;4367464;32;19975;-92
2022/10/22 08:03:59;;;;;;;;;;;;;;;16.01;60.07;99768.78;4349566;32;30328;-92
2022/10/22 08:06:24;;;;;;;;;;;;;;;16.08;60.06;99772.78;4366638;32;20061;-92
2022/10/22 08:08:49;;;;;;;;;;;;;;;16.19;60.07;99780.94;4354318;32;19991;-92
2022/10/22 08:11:15;;;;;;;;;;;;;;;16.31;60.07;99778.56;4353144;32;20002;-93
2022/10/22 08:13:40;;;;;;;;;;;;;;;16.56;60.10;99771.00;4356534;32;20301;-92
2022/10/22 08:16:05;;;;;;;;;;;;;;;16.68;60.09;99770.34;4368277;32;28960;-92
2022/10/22 08:18:30;;;;;;;;;;;;;;;16.85;60.11;99764.16;4368180;32;21267;-92
2022/10/22 08:20:56;;;;;;;;;;;;;;;17.13;60.12;99763.38;4364676;32;19979;-92
2022/10/22 08:23:21;;;;;;;;;;;;;;;17.17;60.13;99770.16;4349801;32;20296;-92
2022/10/22 08:25:46;;;;;;;;;;;;;;;17.52;60.14;99756.69;4367669;32;20252;-91
2022/10/22 08:28:11;;;;;;;;;;;;;;;17.72;60.15;99756.34;4356146;32;20324;-90
2022/10/22 08:30:37;;;;;;;;;;;;;;;17.93;60.17;99757.66;4368552;32;19971;-92
2022/10/22 08:33:03;;;;;;;;;;;;;;;18.20;60.18;99760.34;4368805;32;19970;-93
2022/10/22 08:35:28;;;;;;;;;;;;;;;18.26;60.18;99762.63;4368184;32;19987;-91
2022/10/22 08:37:53;;;;;;;;;;;;;;;18.39;60.19;99766.16;4341067;32;38870;-92
2022/10/22 08:40:20;;;;;;;;;;;;;;;18.21;60.18;99761.19;4361239;32;34365;-92
2022/10/22 08:42:48;;;;;;;;;;;;;;;18.40;60.19;99757.28;4368336;32;20028;-91
2022/10/22 08:45:21;;;;;;;;;;;;;;;18.35;60.19;99758.53;4368498;32;20008;-92
2022/10/22 08:47:50;;;;;;;;;;;;;;;18.41;60.19;99768.69;4368333;32;19983;-92
2022/10/22 08:50:17;;;;;;;;;;;;;;;18.28;60.18;99787.06;4356262;32;20032;-93
2022/10/22 08:52:43;;;;;;;;;;;;;;;18.32;60.19;99775.41;4368059;32;19975;-88
2022/10/22 08:55:11;;;;;;;;;;;;;;;18.46;60.20;99774.53;4355912;32;20055;-91
2022/10/22 08:57:49;;;;;;;;;;;;;;;18.19;60.18;99777.09;4367988;32;20312;-91
2022/10/22 09:00:27;;;;;;;;;;;;;;;18.40;60.20;99759.09;4355812;32;20705;-92
2022/10/22 09:02:55;;;;;;;;;;;;;;;18.37;60.19;99767.19;4355934;32;20648;-91
2022/10/22 09:05:23;;;;;;;;;;;;;;;18.34;60.19;99773.50;4379757;32;20002;-92
2022/10/22 09:07:49;;;;;;;;;;;;;;;18.38;60.20;99780.25;4361905;32;19999;-89
2022/10/22 09:10:14;;;;;;;;;;;;;;;18.47;60.20;99776.22;4357662;32;20022;-91
2022/10/22 09:12:39;;;;;;;;;;;;;;;18.70;60.21;99770.34;4372023;32;20309;-91
2022/10/22 09:15:04;;;;;;;;;;;;;;;18.64;60.21;99767.22;4375380;32;19983;-89
2022/10/22 09:17:35;;;;;;;;;;;;;;;18.72;60.21;99767.59;4367999;32;20021;-89
2022/10/22 09:20:15;;;;;;;;;;;;;;;18.72;60.21;99758.84;4368224;32;19947;-92
2022/10/22 09:22:42;;;;;;;;;;;;;;;18.91;60.21;99760.16;4347513;32;20588;-90
2022/10/22 09:25:21;;;;;;;;;;;;;;;19.00;60.22;99756.06;4355619;32;20340;-90
2022/10/22 09:27:47;;;;;;;;;;;;;;;19.22;60.24;99758.13;4348082;32;20026;-91
2022/10/22 09:30:19;;;;;;;;;;;;;;;19.11;60.23;99772.03;4352274;32;19987;-90
2022/10/22 09:32:45;;;;;;;;;;;;;;;19.14;60.23;99771.81;4355595;32;19965;-91
2022/10/22 09:35:11;;;;;;;;;;;;;;;19.11;60.23;99777.28;4355245;32;21180;-92
2022/10/22 09:37:36;;;;;;;;;;;;;;;19.05;60.23;99787.41;4368066;32;20008;-92
2022/10/22 09:40:03;;;;;;;;;;;;;;;19.01;60.23;99785.00;4345186;32;35532;-92
2022/10/22 09:42:28;;;;;;;;;;;;;;;18.98;60.22;99779.06;4378619;32;19971;-92
2022/10/22 09:44:54;;;;;;;;;;;;;;;19.06;60.23;99794.38;4353713;32;34692;-91
2022/10/22 09:47:31;;;;;;;;;;;;;;;19.15;60.23;99789.34;4355281;32;19998;-92
2022/10/22 09:50:03;;;;;;;;;;;;;;;19.21;60.24;99778.38;4368223;32;19969;-91
2022/10/22 09:52:29;;;;;;;;;;;;;;;19.12;60.23;99768.44;4368093;32;19966;-92
2022/10/22 09:54:54;;;;;;;;;;;;;;;19.31;60.24;99760.13;4362661;32;19994;-92
2022/10/22 09:57:22;;;;;;;;;;;;;;;19.32;60.25;99767.09;4370335;32;20317;-92
2022/10/22 09:59:48;;;;;;;;;;;;;;;19.35;60.25;99766.88;4368279;32;20024;-92
2022/10/22 10:02:14;;;;;;;;;;;;;;;19.29;60.23;99772.59;4368130;32;20306;-92
2022/10/22 10:04:40;;;;;;;;;;;;;;;19.33;60.25;99774.91;4367523;32;20025;-90
2022/10/22 10:07:12;;;;;;;;;;;;;;;19.51;60.25;99770.19;4367878;32;19991;-92
2022/10/22 10:09:37;;;;;;;;;;;;;;;19.63;60.26;99763.22;4355008;32;19959;-91
2022/10/22 10:12:20;;;;;;;;;;;;;;;19.53;60.27;99768.31;4367518;32;26780;-91
2022/10/22 10:14:46;;;;;;;;;;;;;;;19.49;60.26;99753.59;4381292;32;20626;-91
2022/10/22 10:17:11;;;;;;;;;;;;;;;19.63;60.27;99752.66;4367925;32;19986;-90
2022/10/22 10:19:51;;;;;;;;;;;;;;;19.71;60.27;99747.72;4367766;32;19989;-91
2022/10/22 10:22:22;;;;;;;;;;;;;;;19.81;60.27;99756.66;4367712;32;19967;-90
2022/10/22 10:25:07;;;;;;;;;;;;;;;19.66;60.27;99763.03;4356978;32;19987;-90
2022/10/22 10:27:42;;;;;;;;;;;;;;;19.61;60.25;99768.62;4367849;32;20017;-90
2022/10/22 10:30:14;;;;;;;;;;;;;;;19.49;60.25;99756.25;4357629;32;19987;-91
2022/10/22 10:32:39;;;;;;;;;;;;;;;19.55;60.26;99753.19;4368295;32;20038;-91
2022/10/22 10:35:24;;;;;;;;;;;;;;;19.74;60.26;99755.41;4367637;32;20331;-91
2022/10/22 10:38:09;;;;;;;;;;;;;;;19.86;60.28;99749.25;4381995;32;19991;-91
2022/10/22 10:40:37;;;;;;;;;;;;;;;19.99;60.28;99758.97;4368043;32;20006;-90
2022/10/22 10:43:08;;;;;;;;;;;;;;;19.85;60.28;99747.56;4381932;32;19993;-91
2022/10/22 10:46:00;;;;;;;;;;;;;;;20.05;60.28;99755.91;4355703;32;19997;-90
2022/10/22 10:48:37;;;;;;;;;;;;;;;20.13;60.29;99769.44;4379516;32;20001;-90
2022/10/22 10:51:23;;;;;;;;;;;;;;;20.11;60.29;99774.81;4381659;32;19982;-90
2022/10/22 10:53:51;;;;;;;;;;;;;;;20.06;60.28;99779.56;4360104;32;19987;-89
2022/10/22 10:56:22;;;;;;;;;;;;;;;20.23;60.30;99775.72;4381693;32;20029;-93
2022/10/22 10:59:06;;;;;;;;;;;;;;;19.96;60.28;99782.97;4368272;32;20024;-92
2022/10/22 11:01:40;;;;;;;;;;;;;;;20.26;60.30;99786.09;4368424;32;20036;-93
2022/10/22 11:04:15;;;;;;;;;;;;;;;19.98;60.28;99778.44;4368269;32;19970;-93
2022/10/22 11:06:41;;;;;;;;;;;;;;;19.98;60.29;99783.72;4368178;32;20001;-93
2022/10/22 11:09:09;;;;;;;;;;;;;;;20.23;60.30;99771.28;4355027;32;36084;-92
2022/10/22 11:11:47;;;;;;;;;;;;;;;20.26;60.30;99772.03;4368148;32;19947;-92
2022/10/22 11:14:15;;;;;;;;;;;;;;;19.98;60.28;99765.22;4355626;32;19978;-92
2022/10/22 11:16:40;;;;;;;;;;;;;;;20.13;60.28;99769.44;4368188;32;19979;-93
2022/10/22 11:19:13;;;;;;;;;;;;;;;20.08;60.29;99764.44;4381597;32;20292;-93
2022/10/22 11:21:47;;;;;;;;;;;;;;;19.99;60.28;99759.81;4367688;32;20035;-93
2022/10/22 11:24:17;;;;;;;;;;;;;;;20.11;60.29;99758.09;4367960;32;19987;-93
2022/10/22 11:26:47;;;;;;;;;;;;;;;20.15;60.30;99752.50;4367800;32;19990;-94
2022/10/22 11:29:14;;;;;;;;;;;;;;;20.10;60.29;99746.69;4368108;32;20009;-93
2022/10/22 11:31:39;;;;;;;;;;;;;;;20.02;60.29;99754.31;4367823;32;19967;-93
2022/10/22 11:34:17;;;;;;;;;;;;;;;19.85;60.28;99752.00;4367677;32;19994;-92
2022/10/22 11:36:43;;;;;;;;;;;;;;;19.85;60.28;99738.81;4355546;32;19991;-93
2022/10/22 11:39:25;;;;;;;;;;;;;;;19.83;60.28;99738.91;4367701;32;23802;-93
2022/10/22 11:41:51;;;;;;;;;;;;;;;19.95;60.28;99745.16;4367104;32;19979;-93
2022/10/22 11:44:24;;;;;;;;;;;;;;;20.00;60.28;99739.53;4354845;32;19990;-92
2022/10/22 11:46:57;;;;;;;;;;;;;;;19.87;60.28;99734.25;4355738;32;19990;-93
2022/10/22 11:49:23;;;;;;;;;;;;;;;19.81;60.27;99730.25;4355358;32;20644;-94
2022/10/22 11:51:48;;;;;;;;;;;;;;;20.00;60.29;99735.09;4355705;32;19971;-93
2022/10/22 11:54:43;;;;;;;;;;;;;;;19.97;60.28;99724.75;4367951;32;20013;-93
2022/10/22 11:57:11;;;;;;;;;;;;;;;19.97;60.28;99731.81;4366515;32;20336;-93
2022/10/22 11:59:37;;;;;;;;;;;;;;;20.10;60.29;99732.63;4367861;32;20012;-93
2022/10/22 12:02:19;;;;;;;;;;;;;;;20.11;60.30;99732.53;4355478;32;20359;-93
2022/10/22 12:04:44;;;;;;;;;;;;;;;20.11;60.30;99732.53;4355311;32;19999;-94
2022/10/22 12:07:28;;;;;;;;;;;;;;;20.14;60.29;99726.19;4354651;32;37888;-94
2022/10/22 12:09:53;;;;;;;;;;;;;;;20.57;60.31;99718.63;4381158;32;20041;-94
2022/10/22 12:12:18;;;;;;;;;;;;;;;20.45;60.31;99712.47;4366899;32;33054;-93
2022/10/22 12:14:51;;;;;;;;;;;;;;;20.52;60.31;99716.34;4355390;32;36877;-92
2022/10/22 12:17:17;;;;;;;;;;;;;;;20.73;60.33;99715.69;4367689;32;19963;-94
2022/10/22 12:19:45;;;;;;;;;;;;;;;20.49;60.32;99721.00;4353808;32;37940;-93
2022/10/22 12:22:18;;;;;;;;;;;;;;;20.58;60.32;99720.31;4354551;32;20324;-93
2022/10/22 12:24:45;;;;;;;;;;;;;;;20.38;60.30;99713.00;4367273;32;19993;-93
2022/10/22 12:27:20;;;;;;;;;;;;;;;20.53;60.31;99710.09;4367391;32;20002;-94
2022/10/22 12:29:45;;;;;;;;;;;;;;;20.70;60.32;99703.56;4354454;32;19994;-91
2022/10/22 12:32:13;;;;;;;;;;;;;;;20.75;60.32;99704.03;4354240;32;19993;-92
2022/10/22 12:34:43;;;;;;;;;;;;;;;20.56;60.32;99708.16;4366252;32;20018;-90
2022/10/22 12:37:09;;;;;;;;;;;;;;;20.44;60.30;99708.12;4353580;32;20121;-92
2022/10/22 12:39:34;;;;;;;;;;;;;;;20.34;60.30;99696.50;4354441;32;20325;-92
2022/10/22 12:41:59;;;;;;;;;;;;;;;20.44;60.30;99702.84;4354327;32;19979;-91
2022/10/22 12:44:25;;;;;;;;;;;;;;;20.21;60.29;99714.22;4380321;32;20017;-91
2022/10/22 12:46:50;;;;;;;;;;;;;;;20.12;60.29;99714.88;4353670;32;38162;-91
2022/10/22 12:49:22;;;;;;;;;;;;;;;20.23;60.30;99717.59;4353674;32;20034;-94